createdAt,value
2023-03-23T00:03:38.933Z,10.7
2023-03-23T00:13:41.447Z,10.8
2023-03-23T00:23:43.774Z,10.8
2023-03-23T00:33:45.543Z,10.8
2023-03-23T00:43:48.199Z,10.9
2023-03-23T00:53:50.694Z,11.1
2023-03-23T01:03:53.001Z,11.2
2023-03-23T01:13:54.878Z,11.3
2023-03-23T01:23:57.504Z,11.5
2023-03-23T01:33:59.829Z,11.7
2023-03-23T01:44:02.492Z,11.8
2023-03-23T01:54:04.608Z,11.9
2023-03-23T02:04:07.049Z,11.9
2023-03-23T02:14:09.285Z,12
2023-03-23T02:24:11.811Z,12.1
2023-03-23T02:34:13.583Z,12.1
2023-03-23T02:44:16.225Z,12
2023-03-23T02:54:18.555Z,12
2023-03-23T03:04:20.802Z,11.8
2023-03-23T03:14:22.823Z,11.8
2023-03-23T03:24:25.142Z,11.7
2023-03-23T03:34:27.081Z,11.7
2023-03-23T03:44:29.448Z,12
2023-03-23T03:54:31.289Z,12
2023-03-23T04:04:33.157Z,11.9
2023-03-23T04:14:35.426Z,12
2023-03-23T04:24:55.954Z,12
2023-03-23T04:34:39.465Z,12
2023-03-23T04:44:41.728Z,12.1
2023-03-23T04:54:44.261Z,12.1
2023-03-23T05:04:46.259Z,12.1
2023-03-23T05:14:48.849Z,12.2
2023-03-23T05:24:50.594Z,12.2
2023-03-23T05:34:52.818Z,12.3
2023-03-23T05:44:55.395Z,12.4
2023-03-23T05:54:57.931Z,12.3
2023-03-23T06:05:00.697Z,12.3
2023-03-23T06:15:03.081Z,12.4
2023-03-23T06:25:05.028Z,12.3
2023-03-23T06:35:07.206Z,12.2
2023-03-23T06:45:09.860Z,12.2
2023-03-23T06:55:11.662Z,12.2
2023-03-23T07:05:14.116Z,12.4
2023-03-23T07:15:16.208Z,12.5
2023-03-23T07:35:20.265Z,12.6
2023-03-23T07:45:22.545Z,12.7
2023-03-23T07:55:24.778Z,12.7
2023-03-23T08:05:26.744Z,12.8
2023-03-23T08:15:29.317Z,12.8
2023-03-23T08:25:31.487Z,12.9
2023-03-23T08:35:34.066Z,13
2023-03-23T08:45:36.061Z,13.1
2023-03-23T08:55:38.711Z,13.2
2023-03-23T09:05:41.413Z,13.3
2023-03-23T09:15:53.297Z,13.2
2023-03-23T09:25:46.325Z,13.2
2023-03-23T09:35:48.847Z,13.2
2023-03-23T09:45:50.975Z,13.3
2023-03-23T09:55:52.931Z,13.2
2023-03-23T10:05:54.940Z,10.4
2023-03-23T10:15:57.206Z,10.2
2023-03-23T10:36:01.117Z,10.2
2023-03-23T10:46:03.104Z,10
2023-03-23T10:56:04.926Z,10.1
2023-03-23T11:06:07.502Z,10.2
2023-03-23T11:16:09.917Z,10.2
2023-03-23T11:26:11.963Z,10.2
2023-03-23T11:36:14.577Z,9.9
2023-03-23T11:46:16.661Z,9.7
2023-03-23T11:56:18.647Z,9.6
2023-03-23T12:16:23.368Z,10
2023-03-23T12:26:25.771Z,10
2023-03-23T12:36:27.742Z,10
2023-03-23T12:46:30.164Z,10
2023-03-23T12:56:32.493Z,10.2
2023-03-23T13:06:34.771Z,10.4
2023-03-23T13:16:36.533Z,10.9
2023-03-23T13:26:38.258Z,11.1
2023-03-23T13:36:40.192Z,11.2
2023-03-23T13:46:42.610Z,11.6
2023-03-23T13:56:45.018Z,12.1
2023-03-23T14:06:47.263Z,12.1
2023-03-23T14:16:49.714Z,12.3
2023-03-23T14:26:51.404Z,12.6
2023-03-23T14:36:53.744Z,13.2
2023-03-23T14:46:56.124Z,13.1
2023-03-23T14:56:58.640Z,13.3
2023-03-23T15:07:00.859Z,13.3
2023-03-23T15:17:03.283Z,13.3
2023-03-23T15:27:05.139Z,13.3
2023-03-23T15:37:11.751Z,13.5
2023-03-23T15:47:09.218Z,13.8
2023-03-23T15:57:11.830Z,13.8
2023-03-23T16:07:14.302Z,13.8
2023-03-23T16:17:16.462Z,13.6
2023-03-23T16:27:18.225Z,13.7
2023-03-23T16:37:20.307Z,13.8
2023-03-23T16:47:22.266Z,13.7
2023-03-23T16:57:24.939Z,13.6
2023-03-23T17:00:03.315Z,13.6
2023-03-23T17:07:37.108Z,13.6
2023-03-23T17:17:39.218Z,13.5
2023-03-23T17:27:41.768Z,13.4
2023-03-23T17:37:44.309Z,13.3
2023-03-23T17:47:46.950Z,13.2
2023-03-23T17:57:48.661Z,13.2
2023-03-23T18:07:51.272Z,13.1
2023-03-23T18:17:53.878Z,13
2023-03-23T18:27:55.726Z,12.9
2023-03-23T18:37:57.457Z,12.8
2023-03-23T18:47:59.512Z,12.8
2023-03-23T18:58:01.809Z,12.7
2023-03-23T19:08:03.584Z,12.7
2023-03-23T19:18:05.470Z,12.5
2023-03-23T19:38:08.908Z,12.7
2023-03-23T19:48:10.951Z,12.6
2023-03-23T19:58:12.631Z,12.6
2023-03-23T20:18:16.971Z,12.5
2023-03-23T20:28:18.571Z,12.6
2023-03-23T20:48:22.886Z,12.5
2023-03-23T20:58:24.628Z,12.6
2023-03-23T21:18:28.866Z,12.8
2023-03-23T21:28:30.588Z,12.8
2023-03-23T21:38:32.913Z,12.8
2023-03-23T21:48:34.970Z,13
2023-03-23T22:08:39.783Z,12.7
2023-03-23T23:08:53.844Z,11.9
